Time;durP1;ratioP1;P1;durP2;ratioP2;P2;SDS_P1;SDS_P2;PMS_P1;PMS_P2;Temp;Humidity;BMP_temperature;BMP_pressure;BME280_temperature;BME280_humidity;BME280_pressure;Samples;Min_cycle;Max_cycle;Signal;HPM_P1;HPM_P2
2023/06/16 00:04:25;;;;;;;16.27;9.20;;;;;;;16.49;69.81;101888.50;10409775;28;20061;-69
2023/06/16 00:09:26;;;;;;;20.63;10.45;;;;;;;16.47;70.28;101890.63;10417858;28;20033;-69
2023/06/16 00:14:26;;;;;;;13.45;9.48;;;;;;;16.46;75.08;101889.78;10418016;28;20041;-69
2023/06/16 00:19:28;;;;;;;11.43;8.73;;;;;;;16.51;75.37;101886.41;10417262;28;20087;-69
2023/06/16 00:24:29;;;;;;;9.88;8.75;;;;;;;16.52;74.38;101885.34;10417343;28;20144;-69
2023/06/16 00:29:30;;;;;;;9.65;8.50;;;;;;;16.54;74.22;101879.69;10417083;28;20112;-69
2023/06/16 00:34:30;;;;;;;9.85;8.45;;;;;;;16.54;74.20;101874.22;10416311;28;20052;-70
2023/06/16 00:39:30;;;;;;;9.52;8.63;;;;;;;16.46;74.01;101878.84;10416323;28;20044;-69
2023/06/16 00:44:31;;;;;;;12.43;9.02;;;;;;;16.46;75.36;101881.59;10415970;28;20033;-70
2023/06/16 00:49:31;;;;;;;21.13;10.10;;;;;;;16.41;75.08;101875.91;10415939;28;20493;-69
2023/06/16 00:54:32;;;;;;;12.75;9.65;;;;;;;16.38;75.59;101876.34;10414409;28;20049;-70
2023/06/16 00:59:32;;;;;;;18.30;9.23;;;;;;;16.34;75.92;101872.34;10415650;28;20136;-69
2023/06/16 01:04:33;;;;;;;12.48;9.48;;;;;;;16.30;76.06;101871.06;10414245;28;20380;-69
2023/06/16 01:09:45;;;;;;;15.73;10.05;;;;;;;16.28;77.94;101871.28;10397758;28;20037;-69
2023/06/16 01:15:11;;;;;;;11.32;9.90;;;;;;;16.18;76.84;101865.44;10415719;28;20041;-69
2023/06/16 01:20:22;;;;;;;12.55;11.25;;;;;;;16.14;77.44;101858.69;10414850;28;20107;-69
2023/06/16 01:25:23;;;;;;;15.93;9.77;;;;;;;16.09;77.87;101865.84;10397748;28;20029;-69
2023/06/16 01:30:24;;;;;;;12.50;10.55;;;;;;;16.03;77.42;101851.97;10415364;28;20041;-70
2023/06/16 01:35:25;;;;;;;13.15;10.30;;;;;;;15.98;77.55;101862.66;10380245;28;20054;-69
2023/06/16 01:40:25;;;;;;;14.55;10.93;;;;;;;15.96;78.19;101869.41;10397002;28;20037;-69
2023/06/16 01:45:26;;;;;;;13.90;11.00;;;;;;;15.91;78.95;101856.38;10412147;28;20085;-69
2023/06/16 01:50:26;;;;;;;13.88;11.32;;;;;;;15.87;78.77;101851.56;10412518;28;20037;-72
2023/06/16 01:55:27;;;;;;;11.85;10.57;;;;;;;15.83;79.03;101851.13;10416119;28;20057;-72
2023/06/16 02:00:40;;;;;;;11.55;9.32;;;;;;;15.81;80.81;101845.03;10413965;28;20037;-72
2023/06/16 02:05:41;;;;;;;14.85;10.82;;;;;;;15.75;81.60;101846.69;10414277;28;20029;-70
2023/06/16 02:10:42;;;;;;;15.05;12.80;;;;;;;15.73;82.56;101848.81;10413522;28;20402;-72
2023/06/16 02:15:42;;;;;;;13.02;10.50;;;;;;;15.73;82.29;101853.41;10413606;28;20104;-71
2023/06/16 02:20:43;;;;;;;13.73;12.00;;;;;;;15.72;84.22;101855.31;10414323;28;20057;-71
2023/06/16 02:25:43;;;;;;;16.17;10.88;;;;;;;15.72;84.60;101855.31;10396586;28;20354;-71
2023/06/16 02:30:44;;;;;;;11.70;10.50;;;;;;;15.68;86.00;101850.47;10413738;28;20109;-73
2023/06/16 02:35:44;;;;;;;12.57;11.10;;;;;;;15.69;86.19;101854.88;10411343;28;20124;-71
2023/06/16 02:40:45;;;;;;;16.38;11.73;;;;;;;15.65;85.20;101848.13;10416888;28;20041;-72
2023/06/16 02:45:45;;;;;;;13.57;11.70;;;;;;;15.63;86.99;101851.06;10411429;28;20033;-72
2023/06/16 02:50:46;;;;;;;11.10;10.10;;;;;;;15.63;87.18;101850.22;10411766;28;20418;-71
2023/06/16 02:55:49;;;;;;;12.38;10.90;;;;;;;15.58;87.35;101856.31;10412627;28;20033;-71
2023/06/16 03:00:49;;;;;;;12.90;10.82;;;;;;;15.50;85.78;101845.56;10412801;28;20116;-71
2023/06/16 03:05:50;;;;;;;10.60;9.65;;;;;;;15.46;86.41;101857.97;10413191;28;20465;-72
2023/06/16 03:10:51;;;;;;;12.93;10.50;;;;;;;15.42;86.68;101853.97;10413130;28;20037;-71
2023/06/16 03:15:52;;;;;;;11.85;10.05;;;;;;;15.42;86.50;101860.28;10411115;28;20103;-72
2023/06/16 03:20:53;;;;;;;12.05;8.48;;;;;;;15.37;85.40;101862.78;10411864;28;20136;-72
2023/06/16 03:25:53;;;;;;;13.50;9.27;;;;;;;15.32;85.86;101854.38;10411547;28;20055;-72
2023/06/16 03:30:54;;;;;;;10.93;9.05;;;;;;;15.23;84.48;101867.34;10410390;28;20068;-73
2023/06/16 03:35:54;;;;;;;11.07;8.48;;;;;;;15.34;86.50;101874.09;10414576;28;20064;-71
2023/06/16 03:40:55;;;;;;;8.82;7.40;;;;;;;15.35;85.67;101878.53;10415085;28;20508;-71
2023/06/16 03:45:55;;;;;;;18.05;9.52;;;;;;;15.33;85.79;101877.88;10404317;28;20026;-72
2023/06/16 03:50:56;;;;;;;8.27;7.38;;;;;;;15.38;85.94;101883.56;10420706;28;20128;-71
2023/06/16 03:55:57;;;;;;;15.23;8.15;;;;;;;15.40;86.79;101883.34;10418606;28;20140;-72
2023/06/16 04:00:58;;;;;;;10.80;6.82;;;;;;;15.44;86.55;101890.91;10420232;28;20438;-71
2023/06/16 04:05:58;;;;;;;7.55;6.78;;;;;;;15.50;85.75;101889.25;10419374;28;20455;-70
2023/06/16 04:10:59;;;;;;;9.05;7.00;;;;;;;15.54;85.15;101883.19;10420195;28;20037;-70
2023/06/16 04:15:59;;;;;;;12.32;7.15;;;;;;;15.57;84.68;101880.06;10418267;28;20029;-71
2023/06/16 04:21:00;;;;;;;10.63;5.75;;;;;;;15.72;86.72;101889.97;10418657;28;20033;-73
2023/06/16 04:26:01;;;;;;;10.80;6.53;;;;;;;15.80;85.70;101893.34;10434563;28;20037;-70
2023/06/16 04:31:01;;;;;;;13.32;5.72;;;;;;;15.87;85.07;101890.63;10419747;28;20511;-72
2023/06/16 04:36:02;;;;;;;8.52;5.72;;;;;;;16.04;84.35;101896.50;10416776;28;20064;-70
2023/06/16 04:41:03;;;;;;;11.30;5.78;;;;;;;17.09;84.02;101891.94;10418553;28;20187;-71
2023/06/16 04:46:03;;;;;;;12.35;5.57;;;;;;;17.84;81.84;101892.22;10416122;28;20453;-72
2023/06/16 04:51:04;;;;;;;7.22;5.85;;;;;;;17.76;82.42;101902.56;10399652;28;20040;-70
2023/06/16 04:56:04;;;;;;;17.88;4.43;;;;;;;17.57;82.23;101896.13;10417094;28;20103;-71
2023/06/16 05:01:05;;;;;;;8.13;4.63;;;;;;;18.38;80.07;101887.13;10417644;28;20041;-73
2023/06/16 05:06:05;;;;;;;10.27;4.68;;;;;;;19.35;78.28;101895.56;10415860;28;20033;-71
2023/06/16 05:11:06;;;;;;;9.15;5.10;;;;;;;20.15;76.01;101892.47;10415687;28;20061;-71
2023/06/16 05:16:06;;;;;;;6.95;5.10;;;;;;;20.84;75.09;101905.66;10417633;28;20029;-70
2023/06/16 05:21:07;;;;;;;5.80;5.20;;;;;;;21.33;72.93;101898.69;10415740;28;20040;-71
2023/06/16 05:26:08;;;;;;;8.30;4.18;;;;;;;21.74;70.18;101905.03;10431387;28;20117;-72
2023/06/16 05:31:09;;;;;;;5.38;4.85;;;;;;;22.05;68.00;101900.88;10415472;28;20034;-70
2023/06/16 05:36:09;;;;;;;14.65;4.93;;;;;;;22.46;66.47;101893.31;10414391;28;20050;-71
2023/06/16 05:41:10;;;;;;;4.97;4.55;;;;;;;22.94;64.24;101894.56;10415868;28;20083;-71
2023/06/16 05:46:10;;;;;;;11.88;5.18;;;;;;;23.35;63.41;101895.03;10415613;28;20136;-73
2023/06/16 05:51:11;;;;;;;4.75;4.15;;;;;;;23.64;61.87;101897.53;10415405;28;20124;-72
2023/06/16 05:56:12;;;;;;;5.95;4.70;;;;;;;24.07;60.73;101891.06;10416299;28;20414;-72
2023/06/16 06:01:13;;;;;;;4.32;4.03;;;;;;;24.43;57.89;101893.31;10395834;28;20061;-71
2023/06/16 06:06:13;;;;;;;5.03;4.28;;;;;;;24.91;57.28;101908.00;10414342;28;20071;-69
2023/06/16 06:11:14;;;;;;;4.05;3.75;;;;;;;25.27;55.13;101907.09;10414157;28;20396;-70
2023/06/16 06:16:14;;;;;;;5.75;5.10;;;;;;;25.00;54.63;101923.00;10414550;28;20121;-71
2023/06/16 06:21:15;;;;;;;9.13;4.40;;;;;;;24.75;51.89;101918.16;10414056;28;20441;-71
2023/06/16 06:26:15;;;;;;;5.28;4.75;;;;;;;24.96;52.47;101919.94;10413279;28;20129;-70
2023/06/16 06:31:16;;;;;;;4.88;4.47;;;;;;;25.55;51.52;101916.00;10413662;28;20362;-72
2023/06/16 06:36:23;;;;;;;11.13;5.15;;;;;;;26.44;50.61;101919.44;10413343;28;20218;-70
2023/06/16 06:41:24;;;;;;;16.58;5.45;;;;;;;26.88;49.31;101924.38;10415942;28;20377;-70
2023/06/16 06:46:24;;;;;;;4.53;4.15;;;;;;;27.23;48.01;101919.84;10412560;28;20048;-71
2023/06/16 06:51:25;;;;;;;5.25;4.22;;;;;;;27.38;47.49;101925.31;10414067;28;20041;-69
2023/06/16 06:56:25;;;;;;;4.28;3.97;;;;;;;27.69;46.43;101925.13;10412812;28;20385;-70
2023/06/16 07:01:26;;;;;;;4.97;4.53;;;;;;;28.09;46.14;101926.00;10413712;28;20061;-69
2023/06/16 07:06:26;;;;;;;13.02;5.20;;;;;;;28.47;44.49;101929.88;10413669;28;20082;-71
2023/06/16 07:11:27;;;;;;;6.38;3.38;;;;;;;28.44;43.43;101930.44;10412752;28;20029;-77
2023/06/16 07:16:28;;;;;;;4.85;4.40;;;;;;;28.70;42.97;101931.00;10316768;28;20080;-69
2023/06/16 07:21:29;;;;;;;5.18;4.78;;;;;;;28.61;39.60;101932.78;10369968;28;20072;-70
2023/06/16 07:26:30;;;;;;;18.27;4.03;;;;;;;28.96;40.60;101934.34;10371230;28;20038;-70
2023/06/16 07:31:31;;;;;;;9.25;4.45;;;;;;;29.46;40.11;101928.44;10371583;28;20208;-71
2023/06/16 07:36:33;;;;;;;14.63;5.50;;;;;;;29.74;38.89;101933.09;10370985;28;20433;-71
2023/06/16 07:41:33;;;;;;;3.67;3.40;;;;;;;29.91;38.98;101932.53;10386362;28;20038;-66
2023/06/16 07:46:34;;;;;;;7.45;3.92;;;;;;;30.56;39.22;101931.72;10353870;28;20426;-72
2023/06/16 07:51:34;;;;;;;8.45;4.05;;;;;;;30.58;38.44;101943.44;10353440;28;20030;-67
2023/06/16 07:56:35;;;;;;;6.57;3.50;;;;;;;30.73;37.69;101931.16;10368591;28;20382;-71
2023/06/16 08:01:35;;;;;;;4.07;3.75;;;;;;;31.19;38.42;101928.25;10369277;28;20038;-62
2023/06/16 08:06:36;;;;;;;4.25;3.85;;;;;;;31.57;37.57;101918.78;10370413;28;20057;-64
2023/06/16 08:11:36;;;;;;;3.50;3.30;;;;;;;31.63;37.02;101923.94;10370851;28;20100;-67
2023/06/16 08:16:37;;;;;;;3.80;3.50;;;;;;;31.95;37.21;101922.09;10369712;28;20044;-65
2023/06/16 08:21:40;;;;;;;3.33;2.90;;;;;;;32.26;36.83;101913.75;10370112;28;20136;-67
2023/06/16 08:26:40;;;;;;;8.88;4.20;;;;;;;32.57;34.43;101921.34;10374000;28;20322;-65
2023/06/16 08:31:40;;;;;;;7.07;4.30;;;;;;;32.25;33.54;101912.06;10377641;28;20415;-65
2023/06/16 08:36:41;;;;;;;4.53;3.42;;;;;;;32.21;33.49;101915.84;10375904;28;20366;-66
2023/06/16 08:41:42;;;;;;;5.85;3.58;;;;;;;32.02;32.56;101916.88;10378597;28;20053;-63
2023/06/16 08:46:42;;;;;;;15.45;4.05;;;;;;;32.23;33.56;101917.19;10378230;28;20069;-65
2023/06/16 08:51:50;;;;;;;4.40;4.00;;;;;;;32.89;30.17;101917.34;10378481;28;20113;-68
2023/06/16 08:56:51;;;;;;;3.58;3.28;;;;;;;32.34;29.64;101912.94;10377031;28;20111;-65
2023/06/16 09:01:51;;;;;;;5.35;3.33;;;;;;;33.15;31.63;101905.41;10376216;28;20029;-66
2023/06/16 09:06:56;;;;;;;3.88;3.30;;;;;;;32.70;25.46;101897.16;10375026;28;20397;-65
2023/06/16 09:12:22;;;;;;;3.13;2.80;;;;;;;32.63;29.63;101904.06;10375452;28;20183;-70
2023/06/16 09:17:27;;;;;;;3.17;2.85;;;;;;;33.46;29.16;101911.72;10371876;28;20484;-66
2023/06/16 09:22:28;;;;;;;2.77;2.67;;;;;;;33.78;28.91;101915.25;10358074;28;20036;-65
2023/06/16 09:27:43;;;;;;;6.63;3.88;;;;;;;33.40;28.37;101910.22;10375904;28;20414;-66
2023/06/16 09:32:44;;;;;;;3.47;3.17;;;;;;;33.19;28.64;101914.84;10358838;28;20030;-68
2023/06/16 09:37:45;;;;;;;3.88;3.53;;;;;;;33.91;29.96;101904.97;10375407;28;20287;-73
2023/06/16 09:42:47;;;;;;;3.30;3.00;;;;;;;34.40;28.37;101897.97;10373800;28;20044;-75
2023/06/16 09:47:48;;;;;;;3.75;3.45;;;;;;;33.86;27.94;101903.19;10373868;28;20034;-71
2023/06/16 09:52:48;;;;;;;7.88;3.60;;;;;;;33.70;26.25;101902.88;10373255;28;20100;-69
2023/06/16 09:57:48;;;;;;;3.75;3.45;;;;;;;34.58;29.03;101897.94;10373863;28;20049;-71
2023/06/16 10:02:52;;;;;;;3.53;3.10;;;;;;;34.69;27.74;101900.03;10373058;28;20482;-73
2023/06/16 10:07:55;;;;;;;2.35;2.17;;;;;;;34.70;25.48;101892.41;10373264;28;20029;-71
2023/06/16 10:12:56;;;;;;;3.25;2.95;;;;;;;34.59;26.84;101891.97;10355373;28;20125;-67
2023/06/16 10:18:03;;;;;;;19.45;4.03;;;;;;;34.68;26.44;101894.72;10374994;28;20037;-66
2023/06/16 10:23:04;;;;;;;3.90;3.00;;;;;;;35.01;27.55;101886.47;10373220;28;20042;-66
2023/06/16 10:28:07;;;;;;;3.22;3.00;;;;;;;35.00;26.37;101881.16;10371939;28;20069;-72
2023/06/16 10:33:26;;;;;;;3.30;3.10;;;;;;;34.41;24.11;101879.09;10372565;28;20030;-67
2023/06/16 10:38:33;;;;;;;5.22;3.70;;;;;;;34.76;26.48;101879.81;10313186;28;20193;-68
2023/06/16 10:43:34;;;;;;;7.93;3.58;;;;;;;34.47;26.01;101874.94;10370953;28;20437;-67
2023/06/16 10:48:57;;;;;;;6.20;2.78;;;;;;;34.98;25.17;101877.88;10370576;28;20083;-68
2023/06/16 10:53:57;;;;;;;3.38;3.08;;;;;;;35.54;27.22;101872.88;10372030;28;20033;-65
2023/06/16 10:58:58;;;;;;;4.43;3.30;;;;;;;35.82;25.67;101861.84;10372769;28;20049;-65
2023/06/16 11:04:00;;;;;;;9.35;4.00;;;;;;;35.73;22.62;101861.91;10313109;28;20322;-65
2023/06/16 11:09:01;;;;;;;3.80;2.67;;;;;;;34.45;25.13;101858.41;10371296;28;20037;-65
2023/06/16 11:14:02;;;;;;;4.43;4.13;;;;;;;35.02;24.67;101859.13;10371874;28;20393;-66
2023/06/16 11:19:02;;;;;;;10.40;3.70;;;;;;;35.37;25.18;101859.72;10370884;28;20037;-64
2023/06/16 11:24:12;;;;;;;4.47;3.90;;;;;;;34.50;22.22;101863.03;10354070;28;20029;-66
2023/06/16 11:29:13;;;;;;;3.83;3.47;;;;;;;34.88;25.01;101850.94;10369526;28;20704;-64
2023/06/16 11:34:14;;;;;;;8.40;3.63;;;;;;;35.55;25.05;101849.19;10352727;28;20204;-64
2023/06/16 11:39:14;;;;;;;3.75;3.33;;;;;;;36.18;25.80;101830.13;10372165;28;20548;-63
2023/06/16 11:44:15;;;;;;;3.78;3.47;;;;;;;36.18;25.37;101835.75;10369308;28;20026;-66
2023/06/16 11:49:15;;;;;;;3.60;3.35;;;;;;;35.84;25.74;101837.78;10386099;28;20075;-71
2023/06/16 11:54:16;;;;;;;7.30;3.33;;;;;;;35.84;24.24;101836.97;10369288;28;20034;-70
2023/06/16 11:59:17;;;;;;;3.35;2.97;;;;;;;35.56;24.24;101826.28;10370025;28;20038;-68
2023/06/16 12:04:18;;;;;;;2.63;2.33;;;;;;;35.32;23.10;101837.41;10379113;28;20041;-70
2023/06/16 12:09:19;;;;;;;4.00;3.23;;;;;;;35.40;23.19;101822.44;10378173;28;20472;-70
2023/06/16 12:14:24;;;;;;;4.18;3.20;;;;;;;34.72;24.00;101825.38;10379377;28;20279;-73
2023/06/16 12:19:24;;;;;;;4.87;2.47;;;;;;;34.78;23.73;101832.47;10379341;28;20148;-71
2023/06/16 12:24:25;;;;;;;2.88;2.75;;;;;;;34.13;23.43;101820.47;10360474;28;20033;-70
2023/06/16 12:29:26;;;;;;;2.85;2.63;;;;;;;34.36;24.61;101835.09;10376140;28;20053;-69
2023/06/16 12:34:32;;;;;;;9.57;3.28;;;;;;;34.54;23.16;101827.47;10376021;28;20077;-70
2023/06/16 12:39:33;;;;;;;3.88;2.75;;;;;;;34.63;24.50;101833.88;10376361;28;20488;-69
2023/06/16 12:44:41;;;;;;;2.90;2.70;;;;;;;34.54;23.85;101832.25;10359119;28;20030;-69
2023/06/16 12:49:42;;;;;;;4.57;2.50;;;;;;;34.31;21.77;101826.88;10376176;28;20041;-70
2023/06/16 12:54:42;;;;;;;3.83;3.55;;;;;;;33.73;23.07;101817.09;10359537;28;20428;-70
2023/06/16 12:59:43;;;;;;;2.90;2.70;;;;;;;34.12;23.69;101823.66;10376492;28;20212;-68
2023/06/16 13:04:43;;;;;;;3.80;3.00;;;;;;;34.26;22.13;101813.81;10374708;28;20172;-70
2023/06/16 13:09:44;;;;;;;2.50;2.30;;;;;;;33.51;22.01;101804.06;10374314;28;20481;-69
2023/06/16 13:14:44;;;;;;;2.80;2.60;;;;;;;33.41;21.97;101810.81;10375868;28;20034;-69
2023/06/16 13:19:45;;;;;;;3.35;2.60;;;;;;;33.18;23.19;101807.34;10375022;28;20486;-66
2023/06/16 13:24:45;;;;;;;5.75;3.55;;;;;;;32.87;23.38;101799.03;10375336;28;20033;-66
2023/06/16 13:29:46;;;;;;;2.72;2.40;;;;;;;32.98;22.68;101799.56;10374592;28;20096;-65
2023/06/16 13:34:46;;;;;;;2.47;2.27;;;;;;;32.95;24.08;101795.41;10374505;28;20054;-64
2023/06/16 13:39:47;;;;;;;2.85;2.35;;;;;;;32.82;22.25;101800.00;10373355;28;20396;-66
2023/06/16 13:44:47;;;;;;;2.45;2.35;;;;;;;32.94;22.95;101790.13;10373532;28;20381;-65
2023/06/16 13:49:48;;;;;;;2.45;2.35;;;;;;;33.10;23.23;101803.38;10372386;28;20042;-65
2023/06/16 13:54:48;;;;;;;2.83;2.63;;;;;;;33.14;23.98;101789.50;10372798;28;20030;-64
2023/06/16 13:59:48;;;;;;;3.40;3.10;;;;;;;32.59;23.03;101799.28;10374033;28;20044;-65
2023/06/16 14:04:49;;;;;;;4.40;3.00;;;;;;;31.93;23.45;101795.50;10373888;28;20442;-65
2023/06/16 14:09:49;;;;;;;3.15;2.85;;;;;;;32.00;22.54;101784.66;10374855;28;20271;-65
2023/06/16 14:14:50;;;;;;;2.70;2.50;;;;;;;31.99;23.87;101785.81;10373709;28;20056;-65
2023/06/16 14:19:50;;;;;;;2.67;2.47;;;;;;;32.14;24.23;101777.00;10371689;28;20099;-66
2023/06/16 14:24:51;;;;;;;3.27;2.57;;;;;;;31.80;24.48;101783.22;10370302;28;20034;-65
2023/06/16 14:29:51;;;;;;;5.28;3.00;;;;;;;31.53;24.36;101788.97;10372714;28;20773;-66
2023/06/16 14:34:51;;;;;;;3.03;2.80;;;;;;;31.17;23.97;101787.81;10371176;28;20061;-64
2023/06/16 14:39:52;;;;;;;3.13;2.88;;;;;;;30.76;24.22;101774.75;10371455;28;20340;-63
2023/06/16 14:44:53;;;;;;;2.55;2.35;;;;;;;30.57;24.80;101782.44;10372314;28;20429;-68
2023/06/16 14:49:54;;;;;;;2.83;2.63;;;;;;;30.20;24.23;101784.28;10373145;28;20461;-69
2023/06/16 14:54:54;;;;;;;2.83;2.63;;;;;;;29.81;24.17;101771.59;10372886;28;20069;-71
2023/06/16 14:59:55;;;;;;;3.67;2.70;;;;;;;29.74;24.41;101782.34;10374422;28;20474;-70
2023/06/16 15:04:55;;;;;;;13.05;2.97;;;;;;;29.14;24.65;101769.03;10370913;28;20169;-68
2023/06/16 15:09:56;;;;;;;4.07;2.55;;;;;;;28.96;24.96;101767.84;10372953;28;20421;-69
2023/06/16 15:14:56;;;;;;;3.25;2.92;;;;;;;28.93;24.97;101774.03;10372280;28;20208;-70
2023/06/16 15:19:56;;;;;;;2.65;2.45;;;;;;;28.73;24.82;101769.56;10372342;28;20041;-69
2023/06/16 15:24:57;;;;;;;2.30;2.20;;;;;;;28.40;24.71;101765.84;10371588;28;20066;-70
2023/06/16 15:29:57;;;;;;;2.78;2.58;;;;;;;28.51;25.41;101763.75;10372836;28;20165;-68
2023/06/16 15:34:58;;;;;;;3.83;2.80;;;;;;;28.56;25.41;101754.47;10375603;28;20073;-70
2023/06/16 15:39:58;;;;;;;2.27;2.17;;;;;;;28.57;25.33;101747.78;10384734;28;20434;-70
2023/06/16 15:44:58;;;;;;;3.15;2.70;;;;;;;28.66;25.33;101748.78;10367570;28;20374;-69
2023/06/16 15:49:59;;;;;;;6.55;2.95;;;;;;;28.90;25.75;101746.75;10382420;28;20129;-69
2023/06/16 15:54:59;;;;;;;2.40;2.28;;;;;;;28.59;25.98;101745.50;10382881;28;20030;-69
2023/06/16 16:00:00;;;;;;;2.83;2.25;;;;;;;28.33;26.32;101743.03;10382592;28;20450;-68
2023/06/16 16:05:00;;;;;;;3.05;2.45;;;;;;;27.99;25.84;101735.63;10382426;28;20113;-70
2023/06/16 16:10:01;;;;;;;3.03;2.78;;;;;;;27.77;26.58;101738.09;10384602;28;20038;-68
2023/06/16 16:15:01;;;;;;;9.55;2.13;;;;;;;27.63;26.79;101734.28;10384254;28;20064;-68
2023/06/16 16:20:03;;;;;;;2.67;2.47;;;;;;;27.17;26.75;101731.88;10382843;28;20083;-70
2023/06/16 16:25:04;;;;;;;3.10;2.47;;;;;;;26.85;27.10;101738.72;10383320;28;20038;-69
2023/06/16 16:30:05;;;;;;;4.90;4.53;;;;;;;26.08;27.80;101716.81;10385619;28;20079;-69
2023/06/16 16:35:06;;;;;;;3.17;2.97;;;;;;;25.69;28.03;101719.38;10383913;28;20046;-70
2023/06/16 16:40:07;;;;;;;3.42;3.13;;;;;;;25.38;28.20;101724.09;10383114;28;20373;-69
2023/06/16 16:45:08;;;;;;;3.85;3.15;;;;;;;25.21;28.36;101727.16;10364270;28;20034;-69
2023/06/16 16:50:09;;;;;;;3.45;2.97;;;;;;;24.98;28.89;101721.00;10376361;28;20038;-69
2023/06/16 16:55:10;;;;;;;3.00;2.72;;;;;;;24.78;29.14;101718.16;10377113;28;20124;-69
2023/06/16 17:00:11;;;;;;;4.95;3.45;;;;;;;24.62;29.70;101714.53;10376804;28;20465;-70
2023/06/16 17:05:11;;;;;;;9.60;4.20;;;;;;;24.55;29.32;101711.19;10374860;28;20351;-68
2023/06/16 17:10:12;;;;;;;4.28;3.92;;;;;;;24.33;29.66;101719.66;10376220;28;20029;-70
2023/06/16 17:15:14;;;;;;;4.13;2.90;;;;;;;24.29;29.42;101715.75;10377741;28;20032;-70
2023/06/16 17:20:14;;;;;;;3.83;3.42;;;;;;;24.17;29.22;101715.97;10374411;28;20464;-69
2023/06/16 17:25:15;;;;;;;5.60;2.92;;;;;;;24.04;29.51;101714.50;10375495;28;20041;-70
2023/06/16 17:30:15;;;;;;;4.32;3.67;;;;;;;23.84;29.72;101700.56;10376179;28;20034;-69
2023/06/16 17:35:15;;;;;;;6.57;5.93;;;;;;;23.83;29.52;101713.53;10375743;28;20058;-69
2023/06/16 17:40:17;;;;;;;7.13;3.38;;;;;;;23.86;29.32;101713.00;10374976;28;20074;-69
2023/06/16 17:45:17;;;;;;;4.00;3.25;;;;;;;23.60;30.40;101711.16;10372989;28;20481;-70
2023/06/16 17:50:17;;;;;;;2.60;2.42;;;;;;;23.49;31.00;101709.41;10373803;28;20100;-68
2023/06/16 17:55:18;;;;;;;3.25;3.00;;;;;;;23.36;30.98;101700.47;10374025;28;20406;-69
2023/06/16 18:00:18;;;;;;;8.43;2.60;;;;;;;23.27;31.09;101706.75;10374443;28;20088;-69
2023/06/16 18:05:19;;;;;;;2.97;2.70;;;;;;;23.20;31.12;101707.78;10374438;28;20038;-70
2023/06/16 18:10:20;;;;;;;10.60;3.67;;;;;;;23.09;31.58;101710.72;10374909;28;20037;-69
2023/06/16 18:15:22;;;;;;;3.45;3.10;;;;;;;22.90;32.20;101702.75;10376813;28;20049;-70
2023/06/16 18:20:22;;;;;;;2.97;2.78;;;;;;;22.75;32.35;101694.34;10375243;28;20034;-69
2023/06/16 18:25:24;;;;;;;9.25;3.05;;;;;;;22.52;32.57;101701.78;10373995;28;20034;-70
2023/06/16 18:30:25;;;;;;;2.72;2.53;;;;;;;22.40;32.86;101701.13;10373880;28;20030;-69
2023/06/16 18:35:26;;;;;;;2.30;2.10;;;;;;;22.39;31.93;101696.66;10374103;28;20406;-68
2023/06/16 18:40:27;;;;;;;3.97;3.10;;;;;;;22.25;33.02;101698.16;10355169;28;20042;-69
2023/06/16 18:45:27;;;;;;;2.60;2.40;;;;;;;22.16;32.26;101691.41;10372815;28;20507;-67
2023/06/16 18:50:28;;;;;;;3.75;3.22;;;;;;;21.96;32.52;101697.47;10372698;28;20140;-69
2023/06/16 18:55:29;;;;;;;2.95;2.60;;;;;;;21.78;32.95;101696.66;10373209;28;20129;-68
2023/06/16 19:00:30;;;;;;;9.60;2.67;;;;;;;21.73;32.43;101695.72;10371922;28;20038;-68
2023/06/16 19:05:31;;;;;;;5.45;3.28;;;;;;;21.63;32.31;101690.06;10373443;28;20075;-68
2023/06/16 19:10:31;;;;;;;3.60;2.75;;;;;;;21.50;32.71;101688.50;10370056;28;20092;-69
2023/06/16 19:15:32;;;;;;;4.28;2.42;;;;;;;21.35;33.38;101698.19;10354995;28;20049;-68
2023/06/16 19:20:32;;;;;;;5.60;3.35;;;;;;;21.26;33.29;101696.06;10370179;28;20057;-69
2023/06/16 19:25:33;;;;;;;4.88;3.60;;;;;;;21.10;33.77;101695.81;10371517;28;20072;-68
2023/06/16 19:30:33;;;;;;;4.57;4.18;;;;;;;20.94;33.65;101706.81;10372160;28;20188;-68
2023/06/16 19:35:34;;;;;;;2.75;1.92;;;;;;;20.81;33.80;101705.19;10371295;28;20058;-69
2023/06/16 19:40:34;;;;;;;3.58;2.55;;;;;;;20.70;33.06;101700.56;10370641;28;20065;-69
2023/06/16 19:45:34;;;;;;;5.18;2.83;;;;;;;20.47;32.87;101710.53;10369880;28;20034;-69
2023/06/16 19:50:35;;;;;;;2.85;2.65;;;;;;;20.21;32.95;101703.66;10369810;28;20034;-67
2023/06/16 19:55:36;;;;;;;2.42;2.33;;;;;;;20.05;32.99;101710.75;10371428;28;20038;-67
2023/06/16 20:00:36;;;;;;;1.83;1.60;;;;;;;19.91;33.13;101715.66;10369954;28;20421;-66
2023/06/16 20:05:37;;;;;;;4.43;2.72;;;;;;;19.73;33.29;101724.84;10372171;28;20030;-68
2023/06/16 20:10:37;;;;;;;3.67;3.35;;;;;;;19.56;33.19;101720.25;10370107;28;20080;-68
2023/06/16 20:15:38;;;;;;;7.78;3.83;;;;;;;19.32;33.08;101723.00;10370930;28;20092;-69
2023/06/16 20:20:48;;;;;;;4.45;3.65;;;;;;;19.16;33.33;101726.41;10371168;28;20110;-65
2023/06/16 20:25:49;;;;;;;3.45;2.90;;;;;;;19.00;33.62;101730.66;10362210;28;20038;-67
2023/06/16 20:30:49;;;;;;;5.07;4.63;;;;;;;18.82;33.35;101726.03;10378103;28;20061;-66
2023/06/16 20:35:50;;;;;;;4.70;4.10;;;;;;;18.71;33.79;101727.66;10377900;28;20058;-66
2023/06/16 20:40:51;;;;;;;6.90;6.15;;;;;;;18.59;33.86;101729.50;10392527;28;20442;-67
2023/06/16 20:45:51;;;;;;;4.78;3.78;;;;;;;18.48;34.13;101728.38;10375570;28;20041;-66
2023/06/16 20:50:52;;;;;;;37.30;23.85;;;;;;;18.31;34.31;101727.28;10378006;28;20037;-66
2023/06/16 20:55:52;;;;;;;11.18;5.30;;;;;;;18.21;34.52;101730.56;10377785;28;20445;-66
2023/06/16 21:00:53;;;;;;;10.05;8.32;;;;;;;18.14;34.69;101740.78;10375403;28;20156;-70
2023/06/16 21:05:54;;;;;;;16.67;12.60;;;;;;;18.07;35.03;101731.81;10376877;28;20040;-69
2023/06/16 21:10:54;;;;;;;8.93;8.13;;;;;;;17.92;35.01;101725.84;10359121;28;20042;-67
2023/06/16 21:16:00;;;;;;;5.70;5.18;;;;;;;17.80;35.36;101728.47;10359089;28;20029;-68
2023/06/16 21:21:01;;;;;;;4.75;4.28;;;;;;;17.66;35.77;101730.47;10375384;28;20038;-68
2023/06/16 21:26:01;;;;;;;5.47;4.97;;;;;;;17.60;36.10;101731.38;10375572;28;20034;-68
2023/06/16 21:31:02;;;;;;;4.05;3.65;;;;;;;17.50;36.24;101723.66;10377284;28;20057;-68
2023/06/16 21:36:02;;;;;;;10.70;3.55;;;;;;;17.38;36.57;101728.16;10377387;28;20054;-68
2023/06/16 21:41:03;;;;;;;5.10;4.25;;;;;;;17.26;36.61;101724.47;10375949;28;20054;-67
2023/06/16 21:46:04;;;;;;;3.95;3.60;;;;;;;17.18;36.86;101722.84;10358137;28;20033;-68
2023/06/16 21:51:04;;;;;;;8.60;4.75;;;;;;;17.03;37.08;101725.88;10375201;28;20454;-68
2023/06/16 21:56:08;;;;;;;6.72;4.40;;;;;;;16.96;38.04;101725.09;10315901;28;20148;-69
2023/06/16 22:01:08;;;;;;;13.48;9.18;;;;;;;16.86;39.01;101727.47;10414441;28;20045;-70
2023/06/16 22:06:09;;;;;;;13.27;8.65;;;;;;;16.78;38.34;101717.63;10397188;28;20143;-69
2023/06/16 22:11:12;;;;;;;6.65;4.93;;;;;;;16.71;38.54;101716.78;10415742;28;20063;-70
2023/06/16 22:16:12;;;;;;;8.05;4.43;;;;;;;16.57;38.34;101715.19;10414692;28;20040;-72
2023/06/16 22:21:13;;;;;;;9.13;7.13;;;;;;;16.50;38.59;101705.13;10414174;28;20036;-70
2023/06/16 22:26:13;;;;;;;13.07;7.28;;;;;;;16.41;38.74;101700.94;10413931;28;20067;-70
2023/06/16 22:31:14;;;;;;;7.15;4.88;;;;;;;16.38;39.03;101703.28;10413456;28;20040;-70
2023/06/16 22:36:16;;;;;;;11.75;6.55;;;;;;;16.32;39.07;101702.25;10413891;28;20172;-70
2023/06/16 22:41:16;;;;;;;8.05;5.30;;;;;;;16.25;39.15;101701.44;10413343;28;20037;-72
2023/06/16 22:46:17;;;;;;;8.30;4.63;;;;;;;16.15;39.24;101692.84;10412597;28;20445;-71
2023/06/16 22:51:19;;;;;;;7.10;4.80;;;;;;;16.06;39.44;101700.44;10396573;28;20065;-70
2023/06/16 22:56:19;;;;;;;17.38;4.93;;;;;;;15.98;40.33;101692.47;10413698;28;20036;-70
2023/06/16 23:01:23;;;;;;;6.97;4.85;;;;;;;15.97;40.88;101694.34;10398085;28;20388;-69